Time;durP1;ratioP1;P1;durP2;ratioP2;P2;SDS_P1;SDS_P2;PMS_P1;PMS_P2;Temp;Humidity;BMP_temperature;BMP_pressure;BME280_temperature;BME280_humidity;BME280_pressure;Samples;Min_cycle;Max_cycle;Signal;HPM_P1;HPM_P2
2022/01/06 00:00:28;;;;;;;7.00;2.20;;;;;;;;;;4760382;30;20569;-91
2022/01/06 00:03:34;;;;;;;8.53;2.87;;;;;;;;;;4745349;30;20624;-91
2022/01/06 00:06:41;;;;;;;4.63;1.63;;;;;;;;;;4760499;30;20647;-91
2022/01/06 00:09:47;;;;;;;4.20;2.20;;;;;;;;;;4761177;30;20561;-91
2022/01/06 00:16:14;;;;;;;6.87;1.90;;;;;;;;;;4773444;30;20600;-91
2022/01/06 00:26:04;;;;;;;11.60;2.53;;;;;;;;;;4778142;30;20607;-91
2022/01/06 00:29:09;;;;;;;5.53;2.20;;;;;;;;;;4743638;30;20608;-89
2022/01/06 00:32:13;;;;;;;6.33;2.27;;;;;;;;;;4749878;30;20935;-90
2022/01/06 00:35:18;;;;;;;5.73;2.10;;;;;;;;;;4749924;30;20553;-90
2022/01/06 00:38:25;;;;;;;8.20;2.00;;;;;;;;;;4749749;30;20573;-89
2022/01/06 00:41:31;;;;;;;11.83;2.33;;;;;;;;;;4750068;30;20624;-89
2022/01/06 00:44:35;;;;;;;9.10;2.20;;;;;;;;;;4749972;30;20560;-89
2022/01/06 00:47:39;;;;;;;6.20;1.83;;;;;;;;;;4739789;30;20641;-90
2022/01/06 00:50:44;;;;;;;5.47;2.03;;;;;;;;;;4762042;30;20607;-89
2022/01/06 00:53:49;;;;;;;8.23;2.33;;;;;;;;;;4767520;30;20628;-89
2022/01/06 00:56:53;;;;;;;5.90;2.10;;;;;;;;;;4749667;30;20644;-90
2022/01/06 00:59:57;;;;;;;4.73;2.23;;;;;;;;;;4766700;30;20603;-89
2022/01/06 01:03:01;;;;;;;6.60;2.00;;;;;;;;;;4758556;30;20560;-89
2022/01/06 01:06:06;;;;;;;7.17;2.30;;;;;;;;;;4757832;30;21174;-89
2022/01/06 01:09:10;;;;;;;4.20;2.00;;;;;;;;;;4768328;30;20618;-88
2022/01/06 01:12:14;;;;;;;4.67;2.10;;;;;;;;;;4758106;30;20564;-89
2022/01/06 01:15:20;;;;;;;7.47;2.03;;;;;;;;;;4739774;30;20552;-90
2022/01/06 01:18:24;;;;;;;7.73;2.40;;;;;;;;;;4749594;30;20565;-90
2022/01/06 01:21:29;;;;;;;9.13;2.43;;;;;;;;;;4749753;30;20572;-90
2022/01/06 01:24:34;;;;;;;4.07;2.10;;;;;;;;;;4749551;30;20565;-90
2022/01/06 01:27:42;;;;;;;5.90;2.13;;;;;;;;;;4749570;30;20982;-89
2022/01/06 01:34:27;;;;;;;4.80;2.33;;;;;;;;;;4739827;30;20675;-88
2022/01/06 01:37:44;;;;;;;6.43;1.90;;;;;;;;;;4752608;30;20643;-88
2022/01/06 01:40:49;;;;;;;6.17;2.37;;;;;;;;;;4751506;30;20560;-88
2022/01/06 01:43:55;;;;;;;7.10;1.97;;;;;;;;;;4743612;30;20550;-88
2022/01/06 01:47:08;;;;;;;7.63;2.50;;;;;;;;;;4743192;30;20643;-92
2022/01/06 01:50:17;;;;;;;3.57;1.73;;;;;;;;;;4743532;30;20553;-89
2022/01/06 01:53:21;;;;;;;8.53;2.93;;;;;;;;;;4743877;30;20612;-89
2022/01/06 01:56:25;;;;;;;3.10;1.80;;;;;;;;;;4742908;30;20639;-92
2022/01/06 01:59:29;;;;;;;10.43;2.43;;;;;;;;;;4773521;30;21120;-91
2022/01/06 02:02:35;;;;;;;3.67;2.07;;;;;;;;;;4760790;30;20551;-88
2022/01/06 02:05:41;;;;;;;7.47;2.40;;;;;;;;;;4770456;30;20552;-90
2022/01/06 02:08:45;;;;;;;7.10;2.57;;;;;;;;;;4770857;30;20552;-91
2022/01/06 02:11:50;;;;;;;4.90;2.27;;;;;;;;;;4752797;30;21159;-93
2022/01/06 02:14:54;;;;;;;10.37;2.60;;;;;;;;;;4757430;30;20647;-92
2022/01/06 02:17:59;;;;;;;9.10;2.73;;;;;;;;;;4760238;30;20650;-92
2022/01/06 02:21:03;;;;;;;7.83;2.77;;;;;;;;;;4762570;30;20615;-92
2022/01/06 02:24:08;;;;;;;7.33;2.40;;;;;;;;;;4782841;30;20607;-92
2022/01/06 02:27:11;;;;;;;8.83;2.50;;;;;;;;;;4760096;30;20646;-92
2022/01/06 02:30:17;;;;;;;10.07;2.70;;;;;;;;;;4758118;30;20599;-92
2022/01/06 02:33:21;;;;;;;6.20;2.13;;;;;;;;;;4768754;30;20984;-92
2022/01/06 02:36:25;;;;;;;9.43;3.23;;;;;;;;;;4759714;30;20634;-92
2022/01/06 02:39:29;;;;;;;7.33;2.03;;;;;;;;;;4742298;30;20564;-92
2022/01/06 02:42:35;;;;;;;7.77;2.67;;;;;;;;;;4752295;30;20556;-92
2022/01/06 02:45:39;;;;;;;5.07;2.57;;;;;;;;;;4742006;30;20556;-92
2022/01/06 02:48:43;;;;;;;4.73;2.50;;;;;;;;;;4752127;30;20568;-92
2022/01/06 02:51:48;;;;;;;6.30;2.70;;;;;;;;;;4767917;30;20603;-92
2022/01/06 02:54:52;;;;;;;5.90;2.47;;;;;;;;;;4765675;30;20647;-92
2022/01/06 02:57:56;;;;;;;10.47;2.53;;;;;;;;;;4751923;30;20639;-90
2022/01/06 03:01:01;;;;;;;6.03;2.27;;;;;;;;;;4751798;30;20572;-89
2022/01/06 03:04:07;;;;;;;6.73;2.07;;;;;;;;;;4762470;30;20550;-89
2022/01/06 03:07:11;;;;;;;10.53;2.67;;;;;;;;;;4751512;30;20644;-89
2022/01/06 03:10:17;;;;;;;6.37;2.53;;;;;;;;;;4762275;30;20553;-88
2022/01/06 03:13:21;;;;;;;9.57;2.73;;;;;;;;;;4751039;30;20632;-90
2022/01/06 03:16:51;;;;;;;8.93;2.43;;;;;;;;;;4776946;30;20678;-90
2022/01/06 03:19:55;;;;;;;10.40;2.60;;;;;;;;;;4704542;30;20967;-88
2022/01/06 03:23:00;;;;;;;9.93;3.20;;;;;;;;;;4725898;30;20621;-88
2022/01/06 03:26:04;;;;;;;6.03;2.40;;;;;;;;;;4716015;30;20559;-88
2022/01/06 03:29:08;;;;;;;6.83;2.80;;;;;;;;;;4715843;30;20570;-88
2022/01/06 03:32:12;;;;;;;4.80;2.40;;;;;;;;;;4715805;30;20610;-88
2022/01/06 03:35:21;;;;;;;10.37;3.00;;;;;;;;;;4725482;30;20618;-88
2022/01/06 03:38:25;;;;;;;5.33;2.57;;;;;;;;;;4715760;30;20641;-88
2022/01/06 03:41:29;;;;;;;10.63;2.80;;;;;;;;;;4715779;30;20570;-88
2022/01/06 03:44:33;;;;;;;8.10;2.60;;;;;;;;;;4718525;30;20602;-88
2022/01/06 03:47:38;;;;;;;6.20;2.80;;;;;;;;;;4715658;30;20629;-88
2022/01/06 03:50:42;;;;;;;5.93;2.30;;;;;;;;;;4735645;30;20558;-89
2022/01/06 03:53:47;;;;;;;11.90;2.67;;;;;;;;;;4705710;30;20618;-88
2022/01/06 03:56:52;;;;;;;5.10;2.60;;;;;;;;;;4715361;30;20637;-88
2022/01/06 03:59:56;;;;;;;6.90;3.07;;;;;;;;;;4715179;30;20563;-88
2022/01/06 04:03:00;;;;;;;5.17;2.70;;;;;;;;;;4715451;30;20550;-88
2022/01/06 04:06:04;;;;;;;6.47;2.90;;;;;;;;;;4709530;30;20595;-88
2022/01/06 04:09:08;;;;;;;6.23;2.97;;;;;;;;;;4688371;30;20566;-88
2022/01/06 04:12:12;;;;;;;7.13;2.87;;;;;;;;;;4712834;30;20614;-89
2022/01/06 04:15:16;;;;;;;9.43;3.13;;;;;;;;;;4715168;30;20618;-88
2022/01/06 04:18:20;;;;;;;6.60;3.10;;;;;;;;;;4704984;30;21240;-88
2022/01/06 04:21:24;;;;;;;5.23;2.67;;;;;;;;;;4720145;30;20603;-88
2022/01/06 04:24:28;;;;;;;4.83;2.70;;;;;;;;;;4707576;30;20610;-89
2022/01/06 04:27:33;;;;;;;7.90;3.10;;;;;;;;;;4714852;30;20701;-88
2022/01/06 04:30:37;;;;;;;10.00;3.40;;;;;;;;;;4724525;30;20951;-88
2022/01/06 04:33:41;;;;;;;8.03;2.73;;;;;;;;;;4704699;30;20606;-88
2022/01/06 04:36:52;;;;;;;5.93;2.90;;;;;;;;;;4724708;30;20634;-89
2022/01/06 04:39:56;;;;;;;10.20;3.30;;;;;;;;;;4734777;30;21173;-89
2022/01/06 04:43:03;;;;;;;13.87;3.00;;;;;;;;;;4705345;30;20554;-88
2022/01/06 04:46:07;;;;;;;6.50;3.77;;;;;;;;;;4724766;30;20559;-87
2022/01/06 04:49:12;;;;;;;10.80;3.77;;;;;;;;;;4705736;30;20614;-88
2022/01/06 04:52:17;;;;;;;4.00;2.73;;;;;;;;;;4697316;30;21194;-88
2022/01/06 04:55:21;;;;;;;6.10;3.20;;;;;;;;;;4724273;30;20647;-88
2022/01/06 04:58:25;;;;;;;8.03;3.40;;;;;;;;;;4714672;30;21005;-88
2022/01/06 05:01:30;;;;;;;7.83;3.30;;;;;;;;;;4704439;30;20570;-88
2022/01/06 05:04:34;;;;;;;8.50;3.73;;;;;;;;;;4714523;30;20562;-88
2022/01/06 05:07:40;;;;;;;6.10;3.10;;;;;;;;;;4714291;30;20638;-89
2022/01/06 05:10:44;;;;;;;5.33;3.47;;;;;;;;;;4714628;30;21115;-88
2022/01/06 05:13:49;;;;;;;8.60;3.50;;;;;;;;;;4734720;30;20570;-88
2022/01/06 05:16:55;;;;;;;6.80;3.33;;;;;;;;;;4712325;30;20677;-88
2022/01/06 05:19:59;;;;;;;7.03;3.30;;;;;;;;;;4717952;30;20570;-89
2022/01/06 05:23:04;;;;;;;4.73;3.10;;;;;;;;;;4727845;30;20923;-88
2022/01/06 05:26:08;;;;;;;6.97;3.50;;;;;;;;;;4728050;30;20562;-88
2022/01/06 05:29:13;;;;;;;9.17;3.97;;;;;;;;;;4717821;30;20570;-89
2022/01/06 05:32:17;;;;;;;6.73;3.30;;;;;;;;;;4717889;30;20558;-89
2022/01/06 05:35:21;;;;;;;5.63;3.17;;;;;;;;;;4717378;30;20621;-89
2022/01/06 05:38:45;;;;;;;7.63;3.77;;;;;;;;;;4717622;30;20649;-89
2022/01/06 06:02:27;;;;;;;7.43;3.37;;;;;;;;;;4703404;30;20627;-87
2022/01/06 06:05:31;;;;;;;7.43;3.50;;;;;;;;;;4672172;30;20616;-87
2022/01/06 06:08:35;;;;;;;6.53;3.37;;;;;;;;;;4681555;30;20651;-87
2022/01/06 06:11:40;;;;;;;7.47;3.40;;;;;;;;;;4691624;30;20623;-87
2022/01/06 06:14:44;;;;;;;7.93;3.17;;;;;;;;;;4691623;30;20628;-87
2022/01/06 06:17:48;;;;;;;6.93;3.33;;;;;;;;;;4691603;30;21087;-87
2022/01/06 06:20:52;;;;;;;7.83;3.30;;;;;;;;;;4698772;30;20618;-87
2022/01/06 06:23:57;;;;;;;6.60;3.37;;;;;;;;;;4708631;30;20587;-87
2022/01/06 06:27:01;;;;;;;5.97;2.97;;;;;;;;;;4708872;30;20639;-87
2022/01/06 06:30:06;;;;;;;5.93;3.60;;;;;;;;;;4681818;30;20611;-87
2022/01/06 06:33:10;;;;;;;10.93;4.00;;;;;;;;;;4711427;30;20638;-87
2022/01/06 06:36:15;;;;;;;6.73;3.70;;;;;;;;;;4725810;30;20641;-87
2022/01/06 06:39:19;;;;;;;7.83;3.20;;;;;;;;;;4698446;30;20611;-87
2022/01/06 06:42:24;;;;;;;5.70;3.23;;;;;;;;;;4715364;30;20609;-87
2022/01/06 06:45:28;;;;;;;6.07;3.30;;;;;;;;;;4719015;30;20603;-87
2022/01/06 06:48:35;;;;;;;6.37;3.30;;;;;;;;;;4709407;30;20641;-87
2022/01/06 06:51:39;;;;;;;5.90;3.30;;;;;;;;;;4689777;30;20936;-87
2022/01/06 06:54:43;;;;;;;6.87;3.73;;;;;;;;;;4709023;30;20618;-87
2022/01/06 06:57:47;;;;;;;6.13;3.67;;;;;;;;;;4709377;30;20638;-87
2022/01/06 07:00:51;;;;;;;9.73;3.67;;;;;;;;;;4706864;30;20562;-87
2022/01/06 07:03:55;;;;;;;6.70;3.50;;;;;;;;;;4716311;30;20931;-86
2022/01/06 07:06:59;;;;;;;8.53;3.50;;;;;;;;;;4736196;30;20637;-87
2022/01/06 07:10:05;;;;;;;4.20;3.33;;;;;;;;;;4709207;30;20610;-87
2022/01/06 07:13:09;;;;;;;10.57;4.23;;;;;;;;;;4699408;30;20559;-87
2022/01/06 07:16:13;;;;;;;4.53;3.50;;;;;;;;;;4698787;30;20614;-87
2022/01/06 07:19:18;;;;;;;7.10;3.63;;;;;;;;;;4718881;30;20563;-86
2022/01/06 07:22:22;;;;;;;4.40;3.57;;;;;;;;;;4718687;30;20563;-87
2022/01/06 07:25:26;;;;;;;4.97;4.00;;;;;;;;;;4718998;30;20559;-87
2022/01/06 07:28:30;;;;;;;8.20;3.87;;;;;;;;;;4703690;30;20661;-86
2022/01/06 07:31:35;;;;;;;8.37;4.10;;;;;;;;;;4715670;30;20566;-86
2022/01/06 07:34:38;;;;;;;6.43;4.90;;;;;;;;;;4706145;30;20561;-86
2022/01/06 07:37:42;;;;;;;6.47;4.13;;;;;;;;;;4725628;30;21229;-87
2022/01/06 07:40:47;;;;;;;7.23;4.77;;;;;;;;;;4714967;30;21169;-87
2022/01/06 07:43:52;;;;;;;4.70;3.87;;;;;;;;;;4706496;30;20626;-86
2022/01/06 07:46:56;;;;;;;6.00;5.27;;;;;;;;;;4688832;30;20642;-87
2022/01/06 07:50:00;;;;;;;10.60;4.80;;;;;;;;;;4688665;30;20614;-87
2022/01/06 07:53:04;;;;;;;13.27;6.93;;;;;;;;;;4708179;30;20622;-87
2022/01/06 07:56:08;;;;;;;29.93;15.07;;;;;;;;;;4688293;30;20662;-87
2022/01/06 07:59:12;;;;;;;15.33;7.80;;;;;;;;;;4711370;30;20637;-88
2022/01/06 08:02:17;;;;;;;35.90;20.00;;;;;;;;;;4717679;30;20634;-86
2022/01/06 08:05:24;;;;;;;20.83;14.10;;;;;;;;;;4698330;30;20555;-87
2022/01/06 08:08:28;;;;;;;11.70;7.87;;;;;;;;;;4708158;30;20646;-87
2022/01/06 08:11:32;;;;;;;5.90;4.60;;;;;;;;;;4715316;30;20602;-87
2022/01/06 08:14:37;;;;;;;85.43;34.53;;;;;;;;;;4705702;30;20558;-87
2022/01/06 08:17:41;;;;;;;26.57;10.60;;;;;;;;;;4705585;30;20646;-87
2022/01/06 08:20:45;;;;;;;24.37;10.97;;;;;;;;;;4705242;30;21126;-87
2022/01/06 08:23:49;;;;;;;21.20;9.90;;;;;;;;;;4708153;30;20606;-86
2022/01/06 08:26:55;;;;;;;8.63;5.07;;;;;;;;;;4688015;30;20630;-87
2022/01/06 08:30:00;;;;;;;54.20;20.83;;;;;;;;;;4704325;30;21162;-87
2022/01/06 08:33:04;;;;;;;26.03;11.53;;;;;;;;;;4705278;30;20566;-87
2022/01/06 08:36:08;;;;;;;9.57;5.67;;;;;;;;;;4714563;30;20618;-87
2022/01/06 08:39:12;;;;;;;17.70;9.63;;;;;;;;;;4724888;30;20578;-86
2022/01/06 08:42:16;;;;;;;13.07;7.30;;;;;;;;;;4715352;30;20562;-87
2022/01/06 08:45:21;;;;;;;8.47;4.23;;;;;;;;;;4705434;30;20596;-87
2022/01/06 08:48:25;;;;;;;6.37;4.33;;;;;;;;;;4735056;30;21193;-87
2022/01/06 08:51:29;;;;;;;13.13;11.00;;;;;;;;;;4714510;30;20562;-87
2022/01/06 08:54:34;;;;;;;14.23;10.90;;;;;;;;;;4707264;30;21214;-87
2022/01/06 08:57:38;;;;;;;38.97;23.07;;;;;;;;;;4687352;30;20964;-87
2022/01/06 09:00:43;;;;;;;14.50;8.03;;;;;;;;;;4707669;30;20559;-87
2022/01/06 09:03:47;;;;;;;8.13;4.30;;;;;;;;;;4697369;30;20555;-87
2022/01/06 09:06:51;;;;;;;9.07;4.97;;;;;;;;;;4706991;30;20630;-87
2022/01/06 09:09:55;;;;;;;7.83;5.47;;;;;;;;;;4707296;30;20556;-87
2022/01/06 09:13:00;;;;;;;9.67;5.17;;;;;;;;;;4697541;30;20559;-87
2022/01/06 09:16:08;;;;;;;12.73;8.33;;;;;;;;;;4706866;30;20659;-87
2022/01/06 09:19:13;;;;;;;9.60;5.00;;;;;;;;;;4758509;24;21257;-88
2022/01/06 09:22:18;;;;;;;10.17;5.00;;;;;;;;;;4732301;30;20608;-89
2022/01/06 09:25:22;;;;;;;5.87;4.23;;;;;;;;;;4742337;30;20558;-89
2022/01/06 09:28:26;;;;;;;8.50;6.50;;;;;;;;;;4734371;30;20637;-90
2022/01/06 09:31:36;;;;;;;18.80;13.97;;;;;;;;;;4714572;30;20626;-89
2022/01/06 09:34:40;;;;;;;7.37;4.23;;;;;;;;;;4714415;30;20555;-91
2022/01/06 09:37:44;;;;;;;9.13;6.30;;;;;;;;;;4724942;30;20633;-90
2022/01/06 09:40:49;;;;;;;10.70;5.70;;;;;;;;;;4724677;30;20566;-88
2022/01/06 09:43:54;;;;;;;9.57;5.80;;;;;;;;;;4735041;30;20551;-89
2022/01/06 09:47:01;;;;;;;12.97;5.50;;;;;;;;;;4734726;30;20555;-91
2022/01/06 09:50:10;;;;;;;9.50;5.20;;;;;;;;;;4714782;30;20550;-90
2022/01/06 09:53:14;;;;;;;7.83;4.83;;;;;;;;;;4714370;30;20555;-89
2022/01/06 09:56:19;;;;;;;11.50;5.07;;;;;;;;;;4735150;30;20622;-88
2022/01/06 09:59:23;;;;;;;8.90;4.70;;;;;;;;;;4714362;30;21205;-89
2022/01/06 10:02:35;;;;;;;7.20;5.30;;;;;;;;;;4724782;30;20562;-88
2022/01/06 10:05:43;;;;;;;7.83;6.53;;;;;;;;;;4727550;30;20570;-89
2022/01/06 10:08:52;;;;;;;8.13;5.40;;;;;;;;;;4727754;30;20641;-88
2022/01/06 10:11:58;;;;;;;8.97;4.60;;;;;;;;;;4727809;30;20605;-90
2022/01/06 10:15:02;;;;;;;6.87;4.60;;;;;;;;;;4717180;30;21174;-90
2022/01/06 10:18:15;;;;;;;7.10;4.33;;;;;;;;;;4737484;30;20645;-88
2022/01/06 10:21:19;;;;;;;7.80;4.30;;;;;;;;;;4727405;30;20188;-89
2022/01/06 10:24:27;;;;;;;8.50;3.67;;;;;;;;;;4737489;30;20554;-88
2022/01/06 10:27:32;;;;;;;6.13;3.80;;;;;;;;;;4736951;30;21002;-92
2022/01/06 10:30:36;;;;;;;7.53;3.50;;;;;;;;;;4737039;30;20621;-89
2022/01/06 10:33:40;;;;;;;8.23;4.10;;;;;;;;;;4727367;30;20668;-91
2022/01/06 10:36:48;;;;;;;5.80;3.50;;;;;;;;;;4727181;30;20561;-91
2022/01/06 10:39:58;;;;;;;5.63;3.23;;;;;;;;;;4727529;30;20183;-89
2022/01/06 10:43:05;;;;;;;5.70;3.77;;;;;;;;;;4737580;30;20207;-89
2022/01/06 10:46:09;;;;;;;8.43;2.73;;;;;;;;;;4726997;30;21094;-89
2022/01/06 10:49:16;;;;;;;6.60;3.63;;;;;;;;;;4726668;30;20637;-89
2022/01/06 10:52:26;;;;;;;4.77;2.97;;;;;;;;;;4727309;30;20191;-89
2022/01/06 10:55:33;;;;;;;4.63;3.00;;;;;;;;;;4727777;30;20188;-88
2022/01/06 10:58:43;;;;;;;4.17;3.20;;;;;;;;;;4726630;30;20585;-88
2022/01/06 11:01:47;;;;;;;6.77;2.70;;;;;;;;;;4726769;30;20572;-89
2022/01/06 11:04:51;;;;;;;10.13;6.30;;;;;;;;;;4717315;30;20191;-92
2022/01/06 11:07:55;;;;;;;8.70;5.53;;;;;;;;;;4726477;30;20219;-91
2022/01/06 11:14:17;;;;;;;8.30;4.13;;;;;;;;;;4716443;30;20204;-91
2022/01/06 11:17:23;;;;;;;10.37;5.13;;;;;;;;;;4726635;30;20239;-91
2022/01/06 11:20:28;;;;;;;23.80;11.90;;;;;;;;;;4736035;30;20200;-90
2022/01/06 11:23:32;;;;;;;6.90;4.63;;;;;;;;;;4716215;30;20195;-90
2022/01/06 11:26:38;;;;;;;10.77;3.00;;;;;;;;;;4736559;30;20552;-88
2022/01/06 11:29:43;;;;;;;7.93;3.73;;;;;;;;;;4727153;30;20191;-88
2022/01/06 11:32:57;;;;;;;9.50;5.93;;;;;;;;;;4726267;30;20188;-91
2022/01/06 11:36:02;;;;;;;17.83;10.00;;;;;;;;;;4725923;30;20216;-89
2022/01/06 11:39:08;;;;;;;8.33;3.80;;;;;;;;;;4736690;30;20223;-91
2022/01/06 11:42:18;;;;;;;11.27;5.73;;;;;;;;;;4735819;30;20676;-89
2022/01/06 11:45:22;;;;;;;18.20;11.20;;;;;;;;;;4715971;30;20191;-89
2022/01/06 11:48:27;;;;;;;15.40;8.20;;;;;;;;;;4706149;30;20227;-90
2022/01/06 11:51:33;;;;;;;7.00;4.60;;;;;;;;;;4726427;30;20191;-89
2022/01/06 11:54:48;;;;;;;14.73;9.23;;;;;;;;;;4725706;30;20208;-89
2022/01/06 11:57:52;;;;;;;11.03;5.50;;;;;;;;;;4725770;30;20239;-90
2022/01/06 12:01:05;;;;;;;6.33;3.53;;;;;;;;;;4735776;30;20526;-89
2022/01/06 12:04:20;;;;;;;6.10;3.90;;;;;;;;;;4705922;30;20192;-89
2022/01/06 12:07:26;;;;;;;6.83;3.53;;;;;;;;;;4715905;30;20609;-88
2022/01/06 12:10:42;;;;;;;7.73;4.13;;;;;;;;;;4736638;30;20192;-88
2022/01/06 12:13:46;;;;;;;5.97;3.53;;;;;;;;;;4715286;30;20208;-92
2022/01/06 12:16:51;;;;;;;5.53;4.40;;;;;;;;;;4725760;30;20227;-89
2022/01/06 12:19:56;;;;;;;8.33;3.90;;;;;;;;;;4736342;30;20235;-89
2022/01/06 12:23:00;;;;;;;9.37;5.80;;;;;;;;;;4735426;30;20187;-88
2022/01/06 12:26:08;;;;;;;7.20;3.83;;;;;;;;;;4734947;30;20211;-88
2022/01/06 12:29:26;;;;;;;5.93;2.93;;;;;;;;;;4715582;30;20227;-89
2022/01/06 12:32:30;;;;;;;8.97;2.90;;;;;;;;;;4725475;30;20195;-89
2022/01/06 12:35:49;;;;;;;4.90;2.90;;;;;;;;;;4735342;30;20648;-89
2022/01/06 12:38:54;;;;;;;29.77;11.67;;;;;;;;;;4715729;30;20223;-88
2022/01/06 12:42:02;;;;;;;10.93;5.10;;;;;;;;;;4735579;30;20208;-88
2022/01/06 12:45:07;;;;;;;11.77;5.30;;;;;;;;;;4714818;30;20571;-91
2022/01/06 12:48:13;;;;;;;20.53;7.77;;;;;;;;;;4725127;30;20227;-91
2022/01/06 12:51:19;;;;;;;55.10;21.90;;;;;;;;;;4724594;30;20196;-90
2022/01/06 12:54:23;;;;;;;55.00;20.20;;;;;;;;;;4705003;30;20187;-87
2022/01/06 12:57:28;;;;;;;20.43;9.70;;;;;;;;;;4724523;30;20235;-89
2022/01/06 13:00:32;;;;;;;45.53;17.53;;;;;;;;;;4714927;30;20191;-89
2022/01/06 13:03:36;;;;;;;31.47;11.77;;;;;;;;;;4724983;30;20183;-89
2022/01/06 13:06:42;;;;;;;16.33;6.67;;;;;;;;;;4704745;30;20188;-89
2022/01/06 13:09:49;;;;;;;18.00;6.60;;;;;;;;;;4724522;30;20208;-89
2022/01/06 13:13:03;;;;;;;16.10;4.90;;;;;;;;;;4724846;30;20644;-89
2022/01/06 13:16:15;;;;;;;23.67;10.33;;;;;;;;;;4724632;30;20187;-89
2022/01/06 13:19:20;;;;;;;25.73;12.00;;;;;;;;;;4704456;30;20231;-88
2022/01/06 13:22:49;;;;;;;14.37;6.70;;;;;;;;;;4714709;30;20204;-89
2022/01/06 13:26:04;;;;;;;26.03;11.03;;;;;;;;;;4734455;30;20195;-88
2022/01/06 13:29:08;;;;;;;17.77;7.70;;;;;;;;;;4724102;30;20219;-88
2022/01/06 13:32:20;;;;;;;8.10;5.27;;;;;;;;;;4734618;30;20184;-88
2022/01/06 13:35:23;;;;;;;8.70;3.77;;;;;;;;;;4724407;30;20656;-88
2022/01/06 13:38:34;;;;;;;12.10;3.47;;;;;;;;;;4725200;30;20251;-88
2022/01/06 13:41:46;;;;;;;7.83;3.60;;;;;;;;;;4727632;30;20195;-89
2022/01/06 13:44:56;;;;;;;11.77;3.73;;;;;;;;;;4728072;30;20187;-89
2022/01/06 13:48:10;;;;;;;8.83;4.20;;;;;;;;;;4727621;30;20216;-89
2022/01/06 13:51:16;;;;;;;8.77;4.10;;;;;;;;;;4727497;30;20207;-89
2022/01/06 13:54:20;;;;;;;11.90;5.97;;;;;;;;;;4727823;30;20184;-89
2022/01/06 13:57:24;;;;;;;10.57;4.20;;;;;;;;;;4707346;30;20235;-89
2022/01/06 14:00:28;;;;;;;4.97;2.23;;;;;;;;;;4727668;30;20517;-89
2022/01/06 14:03:35;;;;;;;7.73;2.67;;;;;;;;;;4737516;30;20192;-89
2022/01/06 14:06:39;;;;;;;5.33;2.83;;;;;;;;;;4717154;30;20672;-89
2022/01/06 14:09:43;;;;;;;9.20;2.60;;;;;;;;;;4727314;30;20676;-89
2022/01/06 14:12:47;;;;;;;9.17;2.53;;;;;;;;;;4717103;30;20192;-89
2022/01/06 14:15:51;;;;;;;6.50;3.20;;;;;;;;;;4727491;30;20187;-89
2022/01/06 14:18:56;;;;;;;6.47;2.90;;;;;;;;;;4736803;30;20231;-89
2022/01/06 14:22:00;;;;;;;7.63;3.57;;;;;;;;;;4717055;30;20191;-89
2022/01/06 14:25:04;;;;;;;6.63;4.40;;;;;;;;;;4737720;30;20196;-90
2022/01/06 14:28:09;;;;;;;7.07;3.63;;;;;;;;;;4728087;30;20223;-89
2022/01/06 14:31:14;;;;;;;6.40;3.67;;;;;;;;;;4718172;30;20559;-89
2022/01/06 14:34:18;;;;;;;11.00;3.40;;;;;;;;;;4728549;30;20558;-88
2022/01/06 14:37:23;;;;;;;6.10;3.37;;;;;;;;;;4728226;30;20239;-88
2022/01/06 14:40:28;;;;;;;8.67;3.70;;;;;;;;;;4727361;30;20195;-89
2022/01/06 14:43:32;;;;;;;10.23;3.63;;;;;;;;;;4727270;30;20204;-89
2022/01/06 14:46:36;;;;;;;9.10;2.90;;;;;;;;;;4707846;30;20207;-88
2022/01/06 14:49:41;;;;;;;7.47;3.27;;;;;;;;;;4717180;30;20614;-88
2022/01/06 14:52:45;;;;;;;8.53;3.10;;;;;;;;;;4707678;30;20566;-88
2022/01/06 14:55:49;;;;;;;12.90;3.07;;;;;;;;;;4727493;30;20196;-88
2022/01/06 14:58:53;;;;;;;8.13;3.33;;;;;;;;;;4727186;30;20727;-88
2022/01/06 15:01:59;;;;;;;7.40;3.33;;;;;;;;;;4737396;30;20605;-88
2022/01/06 15:05:05;;;;;;;6.87;2.70;;;;;;;;;;4718250;30;20918;-88
2022/01/06 15:08:09;;;;;;;9.77;3.30;;;;;;;;;;4707365;30;20224;-88
2022/01/06 15:11:13;;;;;;;9.63;7.00;;;;;;;;;;4727394;30;20559;-88
2022/01/06 15:14:18;;;;;;;28.40;19.37;;;;;;;;;;4727575;30;20566;-88
2022/01/06 15:17:24;;;;;;;12.30;5.37;;;;;;;;;;4723882;24;21289;31
2022/01/06 15:20:30;;;;;;;14.83;9.60;;;;;;;;;;4680297;30;20640;-84
2022/01/06 15:23:34;;;;;;;12.63;9.80;;;;;;;;;;4682245;30;20560;-86
2022/01/06 15:26:38;;;;;;;15.60;9.53;;;;;;;;;;4701243;30;20572;-85
2022/01/06 15:29:42;;;;;;;10.03;6.23;;;;;;;;;;4664759;30;20641;-85
2022/01/06 15:32:46;;;;;;;9.93;3.77;;;;;;;;;;4664675;30;20566;-85
2022/01/06 15:35:53;;;;;;;9.63;4.13;;;;;;;;;;4654729;30;20565;-84
2022/01/06 15:38:57;;;;;;;11.07;4.17;;;;;;;;;;4683726;30;20672;-84
2022/01/06 15:42:01;;;;;;;14.97;5.00;;;;;;;;;;4664268;30;20573;-86
2022/01/06 15:45:06;;;;;;;11.67;3.70;;;;;;;;;;4664676;30;20565;-84
2022/01/06 15:48:12;;;;;;;11.67;4.97;;;;;;;;;;4654813;30;20632;-85
2022/01/06 15:51:20;;;;;;;7.73;3.90;;;;;;;;;;4654807;30;20558;-84
2022/01/06 15:54:24;;;;;;;18.43;7.37;;;;;;;;;;4664238;30;21128;-86
2022/01/06 15:57:28;;;;;;;13.27;5.03;;;;;;;;;;4663756;30;20656;-88
2022/01/06 16:00:47;;;;;;;7.57;4.53;;;;;;;;;;4663456;30;20620;-86
2022/01/06 16:07:17;;;;;;;17.20;7.93;;;;;;;;;;4663765;30;20923;-88
2022/01/06 16:10:21;;;;;;;17.17;11.03;;;;;;;;;;4654379;30;20549;-86
2022/01/06 16:13:27;;;;;;;16.73;11.20;;;;;;;;;;4664112;30;20620;-88
2022/01/06 16:16:35;;;;;;;19.67;11.50;;;;;;;;;;4665135;30;20982;-88
2022/01/06 16:19:39;;;;;;;28.47;15.03;;;;;;;;;;4673912;30;20652;-88
2022/01/06 16:22:43;;;;;;;31.93;15.50;;;;;;;;;;4664202;30;20640;-86
2022/01/06 16:25:49;;;;;;;20.47;9.87;;;;;;;;;;4654354;30;20980;-88
2022/01/06 16:28:54;;;;;;;11.00;6.03;;;;;;;;;;4664352;30;20970;-87
2022/01/06 16:32:16;;;;;;;10.90;4.80;;;;;;;;;;4673869;30;21110;-87
2022/01/06 16:35:20;;;;;;;9.00;4.03;;;;;;;;;;4654533;30;20578;-88
2022/01/06 16:38:25;;;;;;;7.73;3.53;;;;;;;;;;4654801;30;20668;-88
2022/01/06 16:41:30;;;;;;;5.13;3.20;;;;;;;;;;4674137;30;20561;-86
2022/01/06 16:44:34;;;;;;;8.90;3.80;;;;;;;;;;4664549;30;20560;-86
2022/01/06 16:47:38;;;;;;;9.00;3.67;;;;;;;;;;4654768;30;20553;-86
2022/01/06 16:50:43;;;;;;;9.90;3.80;;;;;;;;;;4674177;30;20569;-87
2022/01/06 16:53:47;;;;;;;10.27;3.63;;;;;;;;;;4664451;30;20557;-87
2022/01/06 16:56:51;;;;;;;10.43;3.50;;;;;;;;;;4663744;30;20569;-88
2022/01/06 16:59:55;;;;;;;5.93;3.03;;;;;;;;;;4664293;30;20549;-88
2022/01/06 17:03:01;;;;;;;5.53;3.27;;;;;;;;;;4653911;30;20562;-88
2022/01/06 17:06:05;;;;;;;6.10;4.03;;;;;;;;;;4663394;30;20582;-87
2022/01/06 17:09:12;;;;;;;7.50;3.70;;;;;;;;;;4654185;30;20640;-87
2022/01/06 17:12:16;;;;;;;7.03;4.00;;;;;;;;;;4655426;30;20576;-87
2022/01/06 17:15:21;;;;;;;10.60;5.37;;;;;;;;;;4659397;30;20557;-87
2022/01/06 17:18:25;;;;;;;9.40;4.47;;;;;;;;;;4659160;30;20675;-87
2022/01/06 17:21:30;;;;;;;8.13;4.27;;;;;;;;;;4659858;30;20561;-87
2022/01/06 17:24:34;;;;;;;10.47;4.67;;;;;;;;;;4669248;30;20668;-86
2022/01/06 17:27:38;;;;;;;8.20;4.03;;;;;;;;;;4669691;30;20628;-88
2022/01/06 17:30:43;;;;;;;11.00;4.00;;;;;;;;;;4679637;30;20624;-87
2022/01/06 17:33:47;;;;;;;11.93;3.90;;;;;;;;;;4659558;30;20557;-88
2022/01/06 17:36:52;;;;;;;8.83;4.10;;;;;;;;;;4669787;30;20561;-88
2022/01/06 17:39:56;;;;;;;7.77;3.77;;;;;;;;;;4659587;30;20544;-88
2022/01/06 17:43:04;;;;;;;12.07;4.10;;;;;;;;;;4660168;30;20552;-87
2022/01/06 17:46:08;;;;;;;8.43;4.00;;;;;;;;;;4668804;30;20561;-87
2022/01/06 17:49:13;;;;;;;23.67;10.20;;;;;;;;;;4661182;30;21278;-86
2022/01/06 17:52:18;;;;;;;19.43;9.33;;;;;;;;;;4660678;30;20573;-87
2022/01/06 17:55:40;;;;;;;18.27;10.17;;;;;;;;;;4661317;30;20558;-86
2022/01/06 17:58:45;;;;;;;11.37;5.87;;;;;;;;;;4670964;30;20672;-85
2022/01/06 18:01:49;;;;;;;7.50;4.30;;;;;;;;;;4670906;30;20574;-86
2022/01/06 18:04:53;;;;;;;7.30;3.90;;;;;;;;;;4651132;30;20569;-86
2022/01/06 18:12:17;;;;;;;8.20;4.40;;;;;;;;;;4672283;30;20613;-86
2022/01/06 18:15:57;;;;;;;8.20;3.70;;;;;;;;;;4690712;30;20632;-86
2022/01/06 18:19:04;;;;;;;12.30;4.10;;;;;;;;;;4678379;30;20680;-86
2022/01/06 18:22:09;;;;;;;8.77;3.90;;;;;;;;;;4667894;30;20911;-86
2022/01/06 18:25:14;;;;;;;6.70;3.40;;;;;;;;;;4675484;30;20903;-86
2022/01/06 18:28:18;;;;;;;5.47;3.07;;;;;;;;;;4675678;30;21196;-86
2022/01/06 18:31:23;;;;;;;10.50;4.27;;;;;;;;;;4667349;30;20573;-86
2022/01/06 18:34:27;;;;;;;34.60;13.00;;;;;;;;;;4677626;30;20613;-86
2022/01/06 18:37:32;;;;;;;16.90;7.47;;;;;;;;;;4650778;30;20628;-86
2022/01/06 18:40:36;;;;;;;17.13;6.20;;;;;;;;;;4663068;30;20573;-86
2022/01/06 18:43:42;;;;;;;6.60;3.73;;;;;;;;;;4658432;30;20616;-86
2022/01/06 18:46:46;;;;;;;7.77;4.03;;;;;;;;;;4664587;30;20625;-86
2022/01/06 18:49:49;;;;;;;9.83;3.27;;;;;;;;;;4667884;30;20604;-86
2022/01/06 18:52:54;;;;;;;9.07;3.13;;;;;;;;;;4674526;30;20620;-86
2022/01/06 18:55:58;;;;;;;7.27;3.43;;;;;;;;;;4665246;30;20624;-86
2022/01/06 18:59:06;;;;;;;8.07;3.63;;;;;;;;;;4674812;30;20660;-86
2022/01/06 19:02:10;;;;;;;8.10;3.17;;;;;;;;;;4648127;30;20629;-86
2022/01/06 19:05:14;;;;;;;8.33;3.40;;;;;;;;;;4647769;30;20613;-87
2022/01/06 19:08:18;;;;;;;6.43;3.23;;;;;;;;;;4657497;30;20629;-85
2022/01/06 19:11:22;;;;;;;7.40;3.60;;;;;;;;;;4674475;30;20617;-85